createdAt,value
2019-04-14T00:00:40.186Z,2.7
2019-04-14T00:01:49.806Z,2.8
2019-04-14T00:02:59.515Z,2.8
2019-04-14T00:04:07.776Z,2.8
2019-04-14T00:05:17.498Z,2.7
2019-04-14T00:06:26.540Z,2.8
2019-04-14T00:07:36.191Z,2.8
2019-04-14T00:08:45.735Z,2.7
2019-04-14T00:09:54.701Z,2.8
2019-04-14T00:11:04.215Z,2.8
2019-04-14T00:12:12.657Z,2.8
2019-04-14T00:13:21.753Z,2.8
2019-04-14T00:14:31.383Z,2.8
2019-04-14T00:15:48.541Z,2.8
2019-04-14T00:17:02.088Z,2.8
2019-04-14T00:18:10.451Z,2.8
2019-04-14T00:19:19.222Z,2.8
2019-04-14T00:20:27.917Z,2.8
2019-04-14T00:21:37.259Z,2.8
2019-04-14T00:22:46.729Z,2.8
2019-04-14T00:23:55.528Z,2.8
2019-04-14T00:25:05.081Z,2.8
2019-04-14T00:26:14.437Z,2.8
2019-04-14T00:27:24.088Z,2.8
2019-04-14T00:28:32.221Z,2.8
2019-04-14T00:29:41.400Z,2.8
2019-04-14T00:30:49.801Z,2.8
2019-04-14T00:31:59.249Z,2.8
2019-04-14T00:33:08.909Z,2.8
2019-04-14T00:34:18.551Z,2.8
2019-04-14T00:35:28.134Z,2.7
2019-04-14T00:36:37.692Z,2.8
2019-04-14T00:37:47.125Z,2.8
2019-04-14T00:38:56.307Z,2.7
2019-04-14T00:40:04.483Z,2.8
2019-04-14T00:41:14.123Z,2.7
2019-04-14T00:42:23.861Z,2.7
2019-04-14T00:43:33.546Z,2.7
2019-04-14T00:44:42.932Z,2.7
2019-04-14T00:45:57.985Z,2.7
2019-04-14T00:47:11.909Z,2.7
2019-04-14T00:48:23.940Z,2.7
2019-04-14T00:49:33.258Z,2.7
2019-04-14T00:50:41.658Z,2.7
2019-04-14T00:51:51.230Z,2.7
2019-04-14T00:52:59.595Z,2.7
2019-04-14T00:54:09.205Z,2.7
2019-04-14T00:55:18.784Z,2.7
2019-04-14T00:56:28.386Z,2.6
2019-04-14T00:57:38.108Z,2.7
2019-04-14T00:58:47.510Z,2.6
2019-04-14T00:59:55.689Z,2.7
2019-04-14T01:01:04.796Z,2.6
2019-04-14T01:02:14.488Z,2.7
2019-04-14T01:03:22.905Z,2.6
2019-04-14T01:04:32.130Z,2.6
2019-04-14T01:05:41.486Z,2.6
2019-04-14T01:06:51.056Z,2.6
2019-04-14T01:08:00.825Z,2.6
2019-04-14T01:09:09.340Z,2.7
2019-04-14T01:10:17.519Z,2.7
2019-04-14T01:11:25.618Z,2.7
2019-04-14T01:12:34.675Z,2.7
2019-04-14T01:13:43.955Z,2.7
2019-04-14T01:14:53.762Z,2.7
2019-04-14T01:16:16.722Z,2.7
2019-04-14T01:17:31.485Z,2.7
2019-04-14T01:18:40.565Z,2.7
2019-04-14T01:19:50.518Z,2.7
2019-04-14T01:21:00.162Z,2.7
2019-04-14T01:22:09.706Z,2.7
2019-04-14T01:23:19.267Z,2.7
2019-04-14T01:24:27.780Z,2.7
2019-04-14T01:25:37.253Z,2.7
2019-04-14T01:26:46.817Z,2.7
2019-04-14T01:27:56.425Z,2.7
2019-04-14T01:29:06.007Z,2.7
2019-04-14T01:30:15.363Z,2.7
2019-04-14T01:31:25.098Z,2.7
2019-04-14T01:32:33.601Z,2.7
2019-04-14T01:33:42.815Z,2.7
2019-04-14T01:34:54.261Z,2.8
2019-04-14T01:36:06.552Z,2.8
2019-04-14T01:37:15.837Z,2.7
2019-04-14T01:38:23.929Z,2.7
2019-04-14T01:39:33.339Z,2.7
2019-04-14T01:40:42.882Z,2.7
2019-04-14T01:41:52.552Z,2.7
2019-04-14T01:43:02.235Z,2.7
2019-04-14T01:44:11.712Z,2.7
2019-04-14T01:45:21.541Z,2.7
2019-04-14T01:46:34.323Z,2.7
2019-04-14T01:47:44.519Z,2.7
2019-04-14T01:48:54.042Z,2.7
2019-04-14T01:50:02.281Z,2.7
2019-04-14T01:51:11.281Z,2.7
2019-04-14T01:52:20.930Z,2.7
2019-04-14T01:53:29.779Z,2.7
2019-04-14T01:54:39.217Z,2.7
2019-04-14T01:55:48.811Z,2.7
2019-04-14T01:56:58.104Z,2.7
2019-04-14T01:58:06.455Z,2.7
2019-04-14T01:59:15.650Z,2.7
2019-04-14T02:00:25.445Z,2.7
2019-04-14T02:01:34.611Z,2.7
2019-04-14T02:02:42.965Z,2.7
2019-04-14T02:03:51.907Z,2.7
2019-04-14T02:05:00.379Z,2.7
2019-04-14T02:06:09.728Z,2.7
2019-04-14T02:07:19.474Z,2.7
2019-04-14T02:08:28.920Z,2.7
2019-04-14T02:09:38.387Z,2.7
2019-04-14T02:10:48.318Z,2.6
2019-04-14T02:11:57.861Z,2.6
2019-04-14T02:13:07.313Z,2.6
2019-04-14T02:14:16.779Z,2.6
2019-04-14T02:15:26.499Z,2.6
2019-04-14T02:16:48.543Z,2.6
2019-04-14T02:18:09.795Z,2.6
2019-04-14T02:19:18.246Z,2.6
2019-04-14T02:20:27.729Z,2.6
2019-04-14T02:21:37.219Z,2.6
2019-04-14T02:22:46.824Z,2.6
2019-04-14T02:23:56.591Z,2.5
2019-04-14T02:25:06.195Z,2.6
2019-04-14T02:26:15.471Z,2.5
2019-04-14T02:27:25.251Z,2.6
2019-04-14T02:28:33.723Z,2.5
2019-04-14T02:29:43.128Z,2.6
2019-04-14T02:31:24.178Z,2.5
2019-04-14T02:35:10.638Z,2.5
2019-04-14T02:42:46.065Z,2.6
2019-04-14T02:46:01.465Z,2.6
2019-04-14T02:49:26.976Z,2.6
2019-04-14T02:52:51.408Z,2.5
2019-04-14T02:56:51.938Z,2.5
2019-04-14T03:00:31.005Z,2.4
2019-04-14T03:03:55.768Z,2.4
2019-04-14T03:07:21.335Z,2.4
2019-04-14T03:10:53.358Z,2.4
2019-04-14T03:20:54.278Z,2.4
2019-04-14T03:24:33.560Z,2.4
2019-04-14T03:27:13.157Z,2.4
2019-04-14T03:30:56.701Z,2.4
2019-04-14T03:34:32.385Z,2.4
2019-04-14T03:38:44.633Z,2.4
2019-04-14T03:42:00.169Z,2.4
2019-04-14T03:45:25.392Z,2.4
2019-04-14T03:52:12.751Z,2.3
2019-04-14T03:55:20.075Z,2.2
2019-04-14T03:56:55.452Z,2.1
2019-04-14T03:58:05.831Z,2.1
2019-04-14T03:59:18.057Z,2.1
2019-04-14T04:00:27.514Z,2
2019-04-14T04:01:37.218Z,2
2019-04-14T04:02:45.128Z,1.9
2019-04-14T04:03:54.218Z,1.9
2019-04-14T04:05:02.787Z,1.9
2019-04-14T04:06:12.235Z,1.9
2019-04-14T04:07:21.864Z,1.9
2019-04-14T04:08:29.826Z,1.8
2019-04-14T04:09:39.077Z,1.8
2019-04-14T04:10:48.571Z,1.8
2019-04-14T04:11:56.884Z,1.8
2019-04-14T04:13:06.155Z,1.8
2019-04-14T04:14:13.923Z,1.8
2019-04-14T04:15:23.428Z,1.8
2019-04-14T04:16:31.850Z,1.8
2019-04-14T04:17:41.349Z,1.7
2019-04-14T04:19:06.259Z,1.7
2019-04-14T04:20:23.920Z,1.7
2019-04-14T04:21:31.690Z,1.6
2019-04-14T04:22:41.192Z,1.6
2019-04-14T04:23:49.645Z,1.6
2019-04-14T04:24:58.570Z,1.6
2019-04-14T04:26:08.034Z,1.6
2019-04-14T04:27:17.692Z,1.5
2019-04-14T04:28:26.296Z,1.5
2019-04-14T04:29:35.602Z,1.5
2019-04-14T04:30:44.584Z,1.4
2019-04-14T04:31:53.243Z,1.4
2019-04-14T04:33:02.783Z,1.3
2019-04-14T04:34:12.389Z,1.3
2019-04-14T04:35:21.716Z,1.2
2019-04-14T04:36:31.238Z,1.2
2019-04-14T04:37:39.686Z,1.1
2019-04-14T04:38:49.216Z,1.1
2019-04-14T04:39:58.752Z,1.1
2019-04-14T04:41:07.916Z,1.1
2019-04-14T04:42:17.549Z,1
2019-04-14T04:43:26.064Z,1
2019-04-14T04:44:35.540Z,1
2019-04-14T04:45:45.149Z,1
2019-04-14T04:46:54.792Z,1
2019-04-14T04:48:04.433Z,1
2019-04-14T04:49:22.893Z,1
2019-04-14T04:50:37.421Z,0.9
2019-04-14T04:51:47.012Z,0.9
2019-04-14T04:52:56.681Z,0.9
2019-04-14T04:54:05.953Z,0.9
2019-04-14T04:55:15.510Z,0.9
2019-04-14T04:56:23.990Z,0.9
2019-04-14T04:57:33.215Z,0.9
2019-04-14T04:58:41.808Z,0.9
2019-04-14T04:59:50.187Z,0.9
2019-04-14T05:01:01.303Z,0.9
2019-04-14T05:02:09.715Z,0.9
2019-04-14T05:03:18.976Z,0.8
2019-04-14T05:04:28.558Z,0.8
2019-04-14T05:05:37.045Z,0.8
2019-04-14T05:06:46.326Z,0.8
2019-04-14T05:07:55.442Z,0.9
2019-04-14T05:09:03.960Z,0.9
2019-04-14T05:10:13.598Z,0.9
2019-04-14T05:11:23.043Z,1
2019-04-14T05:12:32.616Z,1
2019-04-14T05:13:42.353Z,1.1
2019-04-14T05:14:50.841Z,1.1
2019-04-14T05:16:00.268Z,1.1
2019-04-14T05:17:08.448Z,1.2
2019-04-14T05:18:17.709Z,1.2
2019-04-14T05:19:36.474Z,1.3
2019-04-14T05:20:49.297Z,1.3
2019-04-14T05:21:58.590Z,1.3
2019-04-14T05:23:07.971Z,1.3
2019-04-14T05:24:16.197Z,1.4
2019-04-14T05:25:25.885Z,1.3
2019-04-14T05:26:35.092Z,1.4
2019-04-14T05:27:43.599Z,1.4
2019-04-14T05:28:53.217Z,1.4
2019-04-14T05:30:02.645Z,1.5
2019-04-14T05:31:12.037Z,1.5
2019-04-14T05:32:21.591Z,1.5
2019-04-14T05:33:29.829Z,1.6
2019-04-14T05:34:38.987Z,1.6
2019-04-14T05:35:47.096Z,1.6
2019-04-14T05:36:56.819Z,1.7
2019-04-14T05:38:06.185Z,1.7
2019-04-14T05:39:15.593Z,1.7
2019-04-14T05:40:23.987Z,1.7
2019-04-14T05:41:33.475Z,1.8
2019-04-14T05:42:42.721Z,1.7
2019-04-14T05:44:00.240Z,1.8
2019-04-14T05:45:13.286Z,1.8
2019-04-14T05:46:22.974Z,1.9
2019-04-14T05:47:31.080Z,1.9
2019-04-14T05:48:40.343Z,1.8
2019-04-14T05:49:54.348Z,1.9
2019-04-14T05:51:06.876Z,1.9
2019-04-14T05:52:16.232Z,1.9
2019-04-14T05:53:24.461Z,1.9
2019-04-14T05:54:33.946Z,2
2019-04-14T05:55:42.328Z,2
2019-04-14T05:56:51.495Z,2
2019-04-14T05:57:59.955Z,2
2019-04-14T05:59:09.315Z,2.1
2019-04-14T06:00:18.900Z,2.1
2019-04-14T06:01:27.554Z,2.2
2019-04-14T06:02:36.139Z,2.2
2019-04-14T06:03:45.273Z,2.3
2019-04-14T06:04:54.891Z,2.3
2019-04-14T06:06:03.325Z,2.3
2019-04-14T06:07:10.520Z,2.3
2019-04-14T06:08:17.708Z,2.4
2019-04-14T06:09:24.907Z,2.4
2019-04-14T06:10:32.107Z,2.5
2019-04-14T06:11:39.030Z,2.5
2019-04-14T06:12:45.962Z,2.5
2019-04-14T06:13:53.154Z,2.6
2019-04-14T06:15:00.362Z,2.6
2019-04-14T06:16:07.009Z,2.6
2019-04-14T06:17:13.939Z,2.6
2019-04-14T06:18:20.875Z,2.7
2019-04-14T06:19:40.510Z,2.7
2019-04-14T06:20:47.785Z,2.7
2019-04-14T06:21:54.711Z,2.9
2019-04-14T06:23:01.903Z,2.9
2019-04-14T06:24:08.861Z,2.9
2019-04-14T06:25:16.057Z,3.1
2019-04-14T06:26:22.984Z,3.2
2019-04-14T06:27:29.907Z,3.3
2019-04-14T06:28:37.105Z,3.3
2019-04-14T06:29:43.762Z,3.3
2019-04-14T06:30:50.411Z,3.5
2019-04-14T06:31:57.065Z,3.6
2019-04-14T06:33:04.259Z,3.6
2019-04-14T06:34:11.490Z,3.7
2019-04-14T06:35:18.690Z,3.7
2019-04-14T06:36:25.892Z,3.9
2019-04-14T06:37:33.095Z,3.9
2019-04-14T06:38:40.300Z,4
2019-04-14T06:39:47.496Z,4.2
2019-04-14T06:40:55.101Z,4.4
2019-04-14T06:42:02.317Z,4.4
2019-04-14T06:43:12.228Z,4.2
2019-04-14T06:44:19.155Z,4.1
2019-04-14T06:45:26.364Z,4.1
2019-04-14T06:46:33.558Z,4.2
2019-04-14T06:47:40.760Z,4.2
2019-04-14T06:48:47.685Z,4.2
2019-04-14T06:49:54.887Z,4.4
2019-04-14T06:51:02.101Z,4.5
2019-04-14T06:52:09.353Z,4.6
2019-04-14T06:53:16.292Z,4.6
2019-04-14T06:54:23.506Z,4.5
2019-04-14T06:55:30.706Z,4.5
2019-04-14T06:56:37.906Z,4.7
2019-04-14T06:57:45.109Z,4.8
2019-04-14T06:58:52.309Z,4.9
2019-04-14T06:59:59.507Z,5
2019-04-14T07:01:06.705Z,5.2
2019-04-14T07:02:13.906Z,5.4
2019-04-14T07:03:21.103Z,5.6
2019-04-14T07:04:28.032Z,5.5
2019-04-14T07:05:35.236Z,5.4
2019-04-14T07:06:42.156Z,5.3
2019-04-14T07:07:57.742Z,5.4
2019-04-14T07:09:04.948Z,5.7
2019-04-14T07:10:12.135Z,5.8
2019-04-14T07:11:19.334Z,5.8
2019-04-14T07:12:26.565Z,5.7
2019-04-14T07:13:33.765Z,5.9
2019-04-14T07:14:40.966Z,6.2
2019-04-14T07:15:48.169Z,6.4
2019-04-14T07:16:55.376Z,6.3
2019-04-14T07:18:02.575Z,6.5
2019-04-14T07:19:09.773Z,6.3
2019-04-14T07:20:16.970Z,6.1
2019-04-14T07:21:24.175Z,6
2019-04-14T07:22:45.746Z,6
2019-04-14T07:23:52.942Z,6.4
2019-04-14T07:25:00.142Z,6.8
2019-04-14T07:26:07.347Z,6.8
2019-04-14T07:27:14.270Z,6.8
2019-04-14T07:28:21.466Z,6.9
2019-04-14T07:29:28.671Z,7
2019-04-14T07:30:35.596Z,6.8
2019-04-14T07:31:42.800Z,6.8
2019-04-14T07:32:50.004Z,6.8
2019-04-14T07:33:57.205Z,6.9
2019-04-14T07:35:04.408Z,7.3
2019-04-14T07:36:11.605Z,7.5
2019-04-14T07:37:19.739Z,7.7
2019-04-14T07:38:26.945Z,7.3
2019-04-14T07:39:34.148Z,7.2
2019-04-14T07:40:41.342Z,7.4
2019-04-14T07:41:48.272Z,7.7
2019-04-14T07:42:55.473Z,7.8
2019-04-14T07:44:02.133Z,7.7
2019-04-14T07:45:09.055Z,7.6
2019-04-14T07:46:16.329Z,7.3
2019-04-14T07:47:23.517Z,7.3
2019-04-14T07:48:30.725Z,7.5
2019-04-14T07:49:37.995Z,7.3
2019-04-14T07:50:44.933Z,7.4
2019-04-14T07:51:51.865Z,7.6
2019-04-14T07:52:59.071Z,7.7
2019-04-14T07:54:06.277Z,8
2019-04-14T07:55:13.208Z,8.2
2019-04-14T07:56:20.410Z,8.3
2019-04-14T07:57:27.340Z,8.2
2019-04-14T07:58:34.541Z,8
2019-04-14T07:59:41.195Z,7.9
2019-04-14T08:00:48.396Z,7.9
2019-04-14T08:01:55.614Z,8
2019-04-14T22:00:05.969Z,4.4
2019-04-14T22:01:12.907Z,4.4
2019-04-14T22:02:20.114Z,4.4
2019-04-14T22:03:27.316Z,4.4
2019-04-14T22:04:34.245Z,4.4
2019-04-14T22:05:41.173Z,4.4
2019-04-14T22:06:48.527Z,4.4
2019-04-14T22:07:55.725Z,4.4
2019-04-14T22:09:02.924Z,4.4
2019-04-14T22:10:10.125Z,4.4
2019-04-14T22:11:17.334Z,4.4
2019-04-14T22:12:24.532Z,4.4
2019-04-14T22:13:31.180Z,4.4
2019-04-14T22:14:38.108Z,4.4
2019-04-14T22:15:45.519Z,4.4
2019-04-14T22:16:52.454Z,4.4
2019-04-14T22:17:59.384Z,4.4
2019-04-14T22:19:06.311Z,4.4
2019-04-14T22:20:13.512Z,4.4
2019-04-14T22:21:20.710Z,4.4
2019-04-14T22:22:27.913Z,4.4
2019-04-14T22:23:35.115Z,4.4
2019-04-14T22:24:42.314Z,4.4
2019-04-14T22:25:49.240Z,4.3
2019-04-14T22:26:56.531Z,4.3
2019-04-14T22:28:03.542Z,4.3
2019-04-14T22:29:10.748Z,4.4
2019-04-14T22:30:17.667Z,4.4
2019-04-14T22:31:24.625Z,4.4
2019-04-14T22:32:31.825Z,4.4
2019-04-14T22:33:39.028Z,4.5
2019-04-14T22:34:46.226Z,4.4
2019-04-14T22:35:53.484Z,4.4
2019-04-14T22:37:00.671Z,4.4
2019-04-14T22:38:07.871Z,4.3
2019-04-14T22:39:15.102Z,4.4
2019-04-14T22:40:22.301Z,4.4
2019-04-14T22:41:29.505Z,4.4
2019-04-14T22:42:36.706Z,4.4
2019-04-14T22:43:43.912Z,4.5
2019-04-14T22:44:51.116Z,4.5
2019-04-14T22:45:58.053Z,4.4
2019-04-14T22:47:05.276Z,4.4
2019-04-14T22:48:12.468Z,4.4
2019-04-14T22:49:19.682Z,4.5
2019-04-14T22:50:26.881Z,4.5
2019-04-14T22:51:34.090Z,4.5
2019-04-14T22:52:41.293Z,4.5
2019-04-14T22:53:48.501Z,4.5
2019-04-14T22:54:55.429Z,4.5
2019-04-14T22:56:02.326Z,4.5
2019-04-14T22:57:09.528Z,4.4
2019-04-14T22:58:16.774Z,4.4
2019-04-14T22:59:23.958Z,4.4
2019-04-14T23:00:31.160Z,4.4
2019-04-14T23:01:38.086Z,4.4
2019-04-14T23:02:45.291Z,4.4
2019-04-14T23:03:52.484Z,4.4
2019-04-14T23:04:59.679Z,4.4
2019-04-14T23:06:06.598Z,4.5
2019-04-14T23:07:13.810Z,4.5
2019-04-14T23:08:21.040Z,4.5
2019-04-14T23:09:28.237Z,4.5
2019-04-14T23:10:35.437Z,4.5
2019-04-14T23:11:42.636Z,4.5
2019-04-14T23:12:49.837Z,4.5
2019-04-14T23:13:56.768Z,4.5
2019-04-14T23:15:03.428Z,4.5
2019-04-14T23:16:10.641Z,4.5
2019-04-14T23:17:17.566Z,4.5
2019-04-14T23:18:24.767Z,4.6
2019-04-14T23:19:31.970Z,4.6
2019-04-14T23:20:39.265Z,4.6
2019-04-14T23:22:56.983Z,4.6
2019-04-14T23:24:04.183Z,4.6
2019-04-14T23:25:11.112Z,4.6
2019-04-14T23:26:18.309Z,4.6
2019-04-14T23:27:25.507Z,4.6
2019-04-14T23:28:32.710Z,4.6
2019-04-14T23:29:39.365Z,4.7
2019-04-14T23:30:46.296Z,4.7
2019-04-14T23:31:53.497Z,4.7
2019-04-14T23:33:00.696Z,4.7
2019-04-14T23:34:07.892Z,4.7
2019-04-14T23:35:15.091Z,4.6
2019-04-14T23:36:22.025Z,4.6
2019-04-14T23:37:29.242Z,4.7
2019-04-14T23:38:36.441Z,4.7
2019-04-14T23:39:43.644Z,4.7
2019-04-14T23:40:50.572Z,4.7
2019-04-14T23:41:57.500Z,4.7
2019-04-14T23:43:04.704Z,4.7
2019-04-14T23:44:11.907Z,4.7
2019-04-14T23:45:19.208Z,4.7
2019-04-14T23:46:26.398Z,4.7
2019-04-14T23:47:33.602Z,4.7
2019-04-14T23:48:40.525Z,4.7
2019-04-14T23:49:47.459Z,4.7
2019-04-14T23:50:54.660Z,4.7
2019-04-14T23:52:01.859Z,4.7
2019-04-14T23:53:09.059Z,4.7
2019-04-14T23:54:16.349Z,4.7
2019-04-14T23:55:23.277Z,4.7
2019-04-14T23:56:30.480Z,4.7
2019-04-14T23:57:37.683Z,4.7
2019-04-14T23:58:44.882Z,4.7
2019-04-14T23:59:52.082Z,4.8
